Zim Qingdao — A8IZ2 — position and weather

sailwx.info

Track history (hours):
 
Tides and Currents Weather Stations Pressure Air Temp Water Temp Dewpoint Dewpoint Depression Visibility Wind Speed Wind Dir Waves Ship Positions

Zim Qingdao

Last reported at 2017-Sep-24 22:40 UTC. Time now 2017-Sep-25 06:23 UTC.
Position N 36°52' W 075°52'.

Length 260.61 m; beam 32.25 m; draft 12.6 m.

Type: Ship (hazmat cat A). MMSI: 636012904.

Date/timePositionNaut miles runAvg speedWind from/ knotsBaromVisibWave heightAir tempDewpointWater temp
2017-Sep-24 22:40N 36°52' W 075°52'317.7
2017-Sep-24 22:30N 36°53' W 075°54'816.1
2017-Sep-24 22:00N 36°57' W 076°03'1415.0
2017-Sep-24 21:05N 36°58' W 076°20'111.2
2017-Sep-24 21:00N 36°57' W 076°20'1 0.2
2017-Sep-24 13:44N 36°56' W 076°20'0 0.0
2017-Sep-24 09:53N 36°56' W 076°20'0 1.0
2017-Sep-24 09:31N 36°56' W 076°20'9 8.1
2017-Sep-24 08:26N 36°59' W 076°10'613.9
2017-Sep-24 08:00N 36°58' W 076°03'611.7
2017-Sep-24 07:30N 36°56' W 075°56'612.3
2017-Sep-24 07:00N 36°52' W 075°51'  
Track history (hours):
 
Tides and Currents Weather Stations Pressure Air Temp Water Temp Dewpoint Dewpoint Depression Visibility Wind Speed Wind Dir Waves Ship Positions

Zim Qingdao

Last reported at 2017-Sep-24 22:40 UTC. Time now 2017-Sep-25 06:23 UTC.
Position N 36°52' W 075°52'.

Length 260.61 m; beam 32.25 m; draft 12.6 m.

Type: Ship (hazmat cat A). MMSI: 636012904.

Date/timePositionNaut miles runAvg speedWind from/ knotsBaromVisibWave heightAir tempDewpointWater temp
2017-Sep-24 22:40N 36°52' W 075°52'317.7
2017-Sep-24 22:30N 36°53' W 075°54'816.1
2017-Sep-24 22:00N 36°57' W 076°03'1415.0
2017-Sep-24 21:05N 36°58' W 076°20'111.2
2017-Sep-24 21:00N 36°57' W 076°20'1 0.2
2017-Sep-24 13:44N 36°56' W 076°20'0 0.0
2017-Sep-24 09:53N 36°56' W 076°20'0 1.0
2017-Sep-24 09:31N 36°56' W 076°20'9 8.1
2017-Sep-24 08:26N 36°59' W 076°10'613.9
2017-Sep-24 08:00N 36°58' W 076°03'611.7
2017-Sep-24 07:30N 36°56' W 075°56'612.3
2017-Sep-24 07:00N 36°52' W 075°51'  

Dump ship's entire track history